Time;durP1;ratioP1;P1;durP2;ratioP2;P2;SDS_P1;SDS_P2;PMS_P1;PMS_P2;Temp;Humidity;BMP_temperature;BMP_pressure;BME280_temperature;BME280_humidity;BME280_pressure;Samples;Min_cycle;Max_cycle;Signal;HPM_P1;HPM_P2
2022/09/19 00:01:35;;;;;;;;;;;;;;;-144.99;100.00;52444.03;5076838;28;19933;-67
2022/09/19 00:04:02;;;;;;;;;;;;;;;-144.99;100.00;52407.31;5070052;28;19936;-67
2022/09/19 00:06:29;;;;;;;;;;;;;;;-144.99;100.00;52444.03;5075096;28;19939;-67
2022/09/19 00:08:58;;;;;;;;;;;;;;;-144.99;100.00;52439.94;5081259;28;19943;-67
2022/09/19 00:11:25;;;;;;;;;;;;;;;-144.99;100.00;52415.47;5074615;28;19930;-67
2022/09/19 00:13:52;;;;;;;;;;;;;;;-144.99;100.00;52444.03;5078595;28;20120;-69
2022/09/19 00:16:20;;;;;;;;;;;;;;;-144.99;100.00;52472.56;5077943;28;19924;-66
2022/09/19 00:18:46;;;;;;;;;;;;;;;-144.99;100.00;52407.31;5072862;28;19932;-66
2022/09/19 00:21:18;;;;;;;;;;;;;;;-144.99;100.00;52413.44;5068403;28;20381;-66
2022/09/19 00:26:30;;;;;;;;;;;;;;;-144.99;100.00;52439.94;5079635;28;19991;-68
2022/09/19 00:28:56;;;;;;;;;;;;;;;-144.99;100.00;52441.97;5075929;28;19931;-67
2022/09/19 00:31:23;;;;;;;;;;;;;;;-144.99;100.00;52427.72;5072760;28;19928;-66
2022/09/19 00:33:50;;;;;;;;;;;;;;;-144.99;100.00;52444.03;5074242;28;19928;-67
2022/09/19 00:36:17;;;;;;;;;;;;;;;-144.99;100.00;52431.78;5075384;28;19955;-68
2022/09/19 00:38:44;;;;;;;;;;;;;;;-144.99;100.00;52450.13;5075503;28;19937;-66
2022/09/19 00:41:14;;;;;;;;;;;;;;;-144.99;100.00;52435.88;5068140;28;19924;-66
2022/09/19 00:43:45;;;;;;;;;;;;;;;-144.99;100.00;52464.41;5073959;28;19934;-66
2022/09/19 00:46:12;;;;;;;;;;;;;;;-144.99;100.00;52439.94;5072280;28;19935;-66
2022/09/19 00:48:41;;;;;;;;;;;;;;;-144.99;100.00;52439.94;5073336;28;20347;-66
2022/09/19 00:51:10;;;;;;;;;;;;;;;-144.99;100.00;52421.59;5071044;28;19932;-65
2022/09/19 00:53:37;;;;;;;;;;;;;;;-144.99;100.00;52433.81;5077841;28;19928;-65
2022/09/19 00:56:04;;;;;;;;;;;;;;;-144.99;100.00;52456.25;5070401;28;20009;-68
2022/09/19 00:58:33;;;;;;;;;;;;;;;-144.99;100.00;52446.06;5080500;28;19924;-69
2022/09/19 01:01:01;;;;;;;;;;;;;;;-144.99;100.00;52456.25;5070987;28;20369;-68
2022/09/19 01:03:28;;;;;;;;;;;;;;;-144.99;100.00;52423.63;5074330;28;19928;-68
2022/09/19 01:06:00;;;;;;;;;;;;;;;-144.99;100.00;52437.91;5077164;28;19929;-68
2022/09/19 01:08:35;;;;;;;;;;;;;;;-144.99;100.00;52427.72;5077221;28;19928;-67
2022/09/19 01:11:12;;;;;;;;;;;;;;;-144.99;100.00;52415.47;5072400;28;19935;-67
2022/09/19 01:13:42;;;;;;;;;;;;;;;-144.99;100.00;52444.03;5071074;28;20234;-66
2022/09/19 01:16:15;;;;;;;;;;;;;;;-144.99;100.00;52423.63;5072112;28;20614;-66
2022/09/19 01:18:45;;;;;;;;;;;;;;;-144.99;100.00;52407.31;5080930;28;19929;-66
2022/09/19 01:21:40;;;;;;;;;;;;;;;-144.99;100.00;52472.56;5069874;28;19939;-67
2022/09/19 01:24:25;;;;;;;;;;;;;;;-144.99;100.00;52419.56;5083283;28;20349;-67
2022/09/19 01:26:58;;;;;;;;;;;;;;;-144.99;100.00;52441.97;5072691;28;19928;-67
2022/09/19 01:29:30;;;;;;;;;;;;;;;-144.99;100.00;52441.97;5069906;28;20121;-67
2022/09/19 01:31:58;;;;;;;;;;;;;;;-144.99;100.00;52462.34;4730683;28;10000552;-66
2022/09/19 01:34:28;;;;;;;;;;;;;;;-144.99;100.00;52407.31;5081404;28;20442;-66
2022/09/19 01:36:57;;;;;;;;;;;;;;;-144.99;100.00;52419.56;5077300;28;19936;-66
2022/09/19 01:39:25;;;;;;;;;;;;;;;-144.99;100.00;52435.88;5080336;28;20054;-67
2022/09/19 01:41:53;;;;;;;;;;;;;;;-144.99;100.00;52478.66;5083814;28;19935;-67
2022/09/19 01:44:21;;;;;;;;;;;;;;;-144.99;100.00;52460.31;5084905;28;19956;-67
2022/09/19 01:46:53;;;;;;;;;;;;;;;-144.99;100.00;52448.09;5073739;28;19932;-68
2022/09/19 01:49:28;;;;;;;;;;;;;;;-144.99;100.00;52419.56;5082273;28;19925;-70
2022/09/19 01:51:58;;;;;;;;;;;;;;;-144.99;100.00;52448.09;5085108;28;19924;-68
2022/09/19 01:54:30;;;;;;;;;;;;;;;-144.99;100.00;52415.47;5078703;28;19931;-69
2022/09/19 01:57:02;;;;;;;;;;;;;;;-144.99;100.00;52435.88;5079219;28;19928;-71
2022/09/19 01:59:43;;;;;;;;;;;;;;;-144.99;100.00;52452.16;5083949;28;19924;-71
2022/09/19 02:02:14;;;;;;;;;;;;;;;-144.99;100.00;52446.06;5081820;28;20335;-70
2022/09/19 02:04:47;;;;;;;;;;;;;;;-144.99;100.00;52454.22;5080910;28;20452;-70
2022/09/19 02:07:20;;;;;;;;;;;;;;;-144.99;100.00;52399.19;5077228;28;19928;-70
2022/09/19 02:09:50;;;;;;;;;;;;;;;-144.99;100.00;52427.72;5071806;28;19940;-70
2022/09/19 02:12:20;;;;;;;;;;;;;;;-144.99;100.00;52431.78;5084471;28;19924;-69
2022/09/19 02:14:50;;;;;;;;;;;;;;;-144.99;100.00;52446.06;5076672;28;19956;-70
2022/09/19 02:17:24;;;;;;;;;;;;;;;-144.99;100.00;52444.03;5078318;28;20392;-69
2022/09/19 02:19:52;;;;;;;;;;;;;;;-144.99;100.00;52444.03;5082735;28;20381;-69
2022/09/19 02:22:22;;;;;;;;;;;;;;;-144.99;100.00;52492.94;5080102;28;19938;-70
2022/09/19 02:24:51;;;;;;;;;;;;;;;-144.99;100.00;52403.25;5075461;28;19929;-68
2022/09/19 02:27:20;;;;;;;;;;;;;;;-144.99;100.00;52435.88;5074646;28;20372;-68
2022/09/19 02:29:49;;;;;;;;;;;;;;;-144.99;100.00;52431.78;5074761;28;19924;-67
2022/09/19 02:32:19;;;;;;;;;;;;;;;-144.99;100.00;52439.94;5073877;28;19924;-67
2022/09/19 02:34:49;;;;;;;;;;;;;;;-144.99;100.00;52444.03;5085809;28;19931;-67
2022/09/19 02:37:21;;;;;;;;;;;;;;;-144.99;100.00;52431.78;5077575;28;20369;-68
2022/09/19 02:39:51;;;;;;;;;;;;;;;-144.99;100.00;52393.06;5079831;28;19936;-68
2022/09/19 02:42:22;;;;;;;;;;;;;;;-144.99;100.00;52437.91;5084060;28;19924;-68
2022/09/19 02:44:58;;;;;;;;;;;;;;;-144.99;100.00;52468.47;5075496;28;19932;-68
2022/09/19 02:47:28;;;;;;;;;;;;;;;-144.99;100.00;52444.03;5079277;28;19991;-68
2022/09/19 02:49:58;;;;;;;;;;;;;;;-144.99;100.00;52460.31;5073168;28;19924;-68
2022/09/19 02:52:28;;;;;;;;;;;;;;;-144.99;100.00;52431.78;5073880;28;19924;-69
2022/09/19 02:54:57;;;;;;;;;;;;;;;-144.99;100.00;52427.72;5081466;28;19924;-69
2022/09/19 02:57:25;;;;;;;;;;;;;;;-144.99;100.00;52435.88;5075429;28;19928;-68
2022/09/19 02:59:58;;;;;;;;;;;;;;;-144.99;100.00;52468.47;5076633;28;19935;-69
2022/09/19 03:02:26;;;;;;;;;;;;;;;-144.99;100.00;52419.56;5083912;28;20061;-68
2022/09/19 03:04:56;;;;;;;;;;;;;;;-144.99;100.00;52423.63;5082015;28;19940;-68
2022/09/19 03:07:27;;;;;;;;;;;;;;;-144.99;100.00;52439.94;5076378;28;19924;-68
2022/09/19 03:09:57;;;;;;;;;;;;;;;-144.99;100.00;52427.72;5073278;28;19935;-68
2022/09/19 03:12:30;;;;;;;;;;;;;;;-144.99;100.00;52444.03;5071406;28;19931;-66
2022/09/19 03:14:58;;;;;;;;;;;;;;;-144.99;100.00;52456.25;5082588;28;19928;-66
2022/09/19 03:17:27;;;;;;;;;;;;;;;-144.99;100.00;52444.03;5077539;28;19939;-66
2022/09/19 03:19:53;;;;;;;;;;;;;;;-144.99;100.00;52403.25;5086736;28;19924;-66
2022/09/19 03:22:22;;;;;;;;;;;;;;;-144.99;100.00;52423.63;5081839;28;19951;-66
2022/09/19 03:24:50;;;;;;;;;;;;;;;-144.99;100.00;52423.63;5082549;28;19935;-67
2022/09/19 03:27:16;;;;;;;;;;;;;;;-144.99;100.00;52395.09;5074639;28;20415;-65
2022/09/19 03:29:42;;;;;;;;;;;;;;;-144.99;100.00;52464.41;5081087;28;19933;-68
2022/09/19 03:32:10;;;;;;;;;;;;;;;-144.99;100.00;52435.88;5076533;28;20031;-68
2022/09/19 03:34:37;;;;;;;;;;;;;;;-144.99;100.00;52448.09;5085351;28;19924;-69
2022/09/19 03:37:03;;;;;;;;;;;;;;;-144.99;100.00;52431.78;5077828;28;19932;-69
2022/09/19 03:42:10;;;;;;;;;;;;;;;-144.99;100.00;52407.31;5043663;28;20416;-62
2022/09/19 03:44:37;;;;;;;;;;;;;;;-144.99;100.00;52452.16;5036823;28;19925;-65
2022/09/19 03:47:04;;;;;;;;;;;;;;;-144.99;100.00;52415.47;5030325;28;20370;-66
2022/09/19 03:49:30;;;;;;;;;;;;;;;-144.99;100.00;52395.09;5038567;28;20348;-65
2022/09/19 03:51:59;;;;;;;;;;;;;;;-144.99;100.00;52435.88;5043199;28;19925;-65
2022/09/19 03:54:26;;;;;;;;;;;;;;;-144.99;100.00;52399.19;5031821;28;19925;-65
2022/09/19 03:56:52;;;;;;;;;;;;;;;-144.99;100.00;52456.25;5029539;28;20016;-65
2022/09/19 03:59:20;;;;;;;;;;;;;;;-144.99;100.00;52468.47;5043144;28;20305;-67
2022/09/19 04:01:47;;;;;;;;;;;;;;;-144.99;100.00;52439.94;5043748;28;20290;-67
2022/09/19 04:04:13;;;;;;;;;;;;;;;-144.99;100.00;52456.25;5049390;28;19931;-66
2022/09/19 04:06:40;;;;;;;;;;;;;;;-144.99;100.00;52435.88;5049421;28;19979;-65
2022/09/19 04:09:07;;;;;;;;;;;;;;;-144.99;100.00;52431.78;5046991;28;19925;-66
2022/09/19 04:11:34;;;;;;;;;;;;;;;-144.99;100.00;52444.03;5042027;28;19940;-68
2022/09/19 04:14:01;;;;;;;;;;;;;;;-144.99;100.00;52435.88;5049701;28;19925;-67
2022/09/19 04:16:29;;;;;;;;;;;;;;;-144.99;100.00;52448.09;5049192;28;20373;-62
2022/09/19 04:18:55;;;;;;;;;;;;;;;-144.99;100.00;52431.78;5042391;28;19929;-63
2022/09/19 04:21:22;;;;;;;;;;;;;;;-144.99;100.00;52419.56;5038548;28;19929;-63
2022/09/19 04:23:48;;;;;;;;;;;;;;;-144.99;100.00;52433.81;5048865;28;19925;-64
2022/09/19 04:26:15;;;;;;;;;;;;;;;-144.99;100.00;52413.44;5048786;28;19940;-64
2022/09/19 04:28:41;;;;;;;;;;;;;;;-144.99;100.00;52407.31;5047842;28;19925;-64
2022/09/19 04:31:09;;;;;;;;;;;;;;;-144.99;100.00;52431.78;5044157;28;19929;-65
2022/09/19 04:33:37;;;;;;;;;;;;;;;-144.99;100.00;52448.09;5039446;28;20024;-65
2022/09/19 04:36:05;;;;;;;;;;;;;;;-144.99;100.00;52415.47;5029570;28;19932;-65
2022/09/19 04:38:32;;;;;;;;;;;;;;;-144.99;100.00;52391.03;5036583;28;19971;-65
2022/09/19 04:41:00;;;;;;;;;;;;;;;-144.99;100.00;52411.41;5047206;28;19928;-65
2022/09/19 04:43:27;;;;;;;;;;;;;;;-144.99;100.00;52411.41;5030992;28;19932;-65
2022/09/19 04:45:54;;;;;;;;;;;;;;;-144.99;100.00;52417.53;5031564;28;20313;-66
2022/09/19 04:48:21;;;;;;;;;;;;;;;-144.99;100.00;52419.56;5033399;28;19932;-65
2022/09/19 04:50:50;;;;;;;;;;;;;;;-144.99;100.00;52415.47;5035662;28;20007;-65
2022/09/19 04:53:18;;;;;;;;;;;;;;;-144.99;100.00;52403.25;5043731;28;19932;-64
2022/09/19 04:55:48;;;;;;;;;;;;;;;-144.99;100.00;52407.31;5053763;28;20027;-65
2022/09/19 04:58:15;;;;;;;;;;;;;;;-144.99;100.00;52403.25;5052369;28;19982;-65
2022/09/19 05:00:41;;;;;;;;;;;;;;;-144.99;100.00;52415.47;5046353;28;19931;-67
2022/09/19 05:03:09;;;;;;;;;;;;;;;-144.99;100.00;52423.63;4349145;28;10000812;-67
2022/09/19 05:05:37;;;;;;;;;;;;;;;-144.99;100.00;52382.88;5039574;28;19929;-67
2022/09/19 05:08:06;;;;;;;;;;;;;;;-144.99;100.00;52423.63;5038790;28;19982;-69
2022/09/19 05:10:33;;;;;;;;;;;;;;;-144.99;100.00;52403.25;5042435;28;20188;-67
2022/09/19 05:12:59;;;;;;;;;;;;;;;-144.99;100.00;52415.47;5039201;28;19929;-67
2022/09/19 05:15:26;;;;;;;;;;;;;;;-144.99;100.00;52417.53;5030597;28;19932;-68
2022/09/19 05:17:55;;;;;;;;;;;;;;;-144.99;100.00;52407.31;5035277;28;20274;-69
2022/09/19 05:20:22;;;;;;;;;;;;;;;-144.99;100.00;52431.78;5038293;28;19933;-68
2022/09/19 05:22:48;;;;;;;;;;;;;;;-144.99;100.00;52464.41;5044642;28;20019;-68
2022/09/19 05:25:16;;;;;;;;;;;;;;;-144.99;100.00;52476.63;5049982;28;19924;-68
2022/09/19 05:27:43;;;;;;;;;;;;;;;-144.99;100.00;52386.94;5048550;28;19928;-68
2022/09/19 05:30:11;;;;;;;;;;;;;;;-144.99;100.00;52429.75;5039888;28;20244;-68
2022/09/19 05:32:39;;;;;;;;;;;;;;;-144.99;100.00;52415.47;5039421;28;20363;-68
2022/09/19 05:35:06;;;;;;;;;;;;;;;-144.99;100.00;52391.03;5041019;28;20279;-68
2022/09/19 05:37:32;;;;;;;;;;;;;;;-144.99;100.00;52403.25;5049470;28;20316;-68
2022/09/19 05:39:58;;;;;;;;;;;;;;;-144.99;100.00;52415.47;5034384;28;19932;-68
2022/09/19 05:42:26;;;;;;;;;;;;;;;-144.99;100.00;52425.66;5043288;28;19936;-69
2022/09/19 05:44:54;;;;;;;;;;;;;;;-144.99;100.00;52386.94;5039067;28;19945;-67
2022/09/19 05:47:21;;;;;;;;;;;;;;;-144.99;100.00;52419.56;5049247;28;20168;-69
2022/09/19 05:49:47;;;;;;;;;;;;;;;-144.99;100.00;52427.72;5030604;28;20381;-67
2022/09/19 05:54:57;;;;;;;;;;;;;;;-144.99;100.00;52403.25;5041001;28;19947;-68
2022/09/19 05:57:23;;;;;;;;;;;;;;;-144.99;100.00;52403.25;5028828;28;19929;-68
2022/09/19 05:59:51;;;;;;;;;;;;;;;-144.99;100.00;52386.94;5029159;28;19972;-69
2022/09/19 06:02:20;;;;;;;;;;;;;;;-144.99;100.00;52395.09;5029558;28;19951;-68
2022/09/19 06:04:46;;;;;;;;;;;;;;;-144.99;100.00;52395.09;5045949;28;19933;-67
2022/09/19 06:07:13;;;;;;;;;;;;;;;-144.99;100.00;52391.03;5047107;28;19928;-68
2022/09/19 06:09:40;;;;;;;;;;;;;;;-144.99;100.00;52378.78;5048746;28;20007;-68
2022/09/19 06:12:07;;;;;;;;;;;;;;;-144.99;100.00;52391.03;5048053;28;19929;-67
2022/09/19 06:14:35;;;;;;;;;;;;;;;-144.99;100.00;52395.09;5043171;28;19925;-67
2022/09/19 06:17:02;;;;;;;;;;;;;;;-144.99;100.00;52382.88;5044955;28;19986;-68
2022/09/19 06:19:29;;;;;;;;;;;;;;;-144.99;100.00;52362.50;5043876;28;19929;-69
2022/09/19 06:21:57;;;;;;;;;;;;;;;-144.99;100.00;52362.50;5029283;28;19940;-69
2022/09/19 06:24:23;;;;;;;;;;;;;;;-144.99;100.00;52391.03;5033729;28;19929;-68
2022/09/19 06:26:53;;;;;;;;;;;;;;;-144.99;100.00;52378.78;5043390;28;19936;-68
2022/09/19 06:29:20;;;;;;;;;;;;;;;-144.99;100.00;52386.94;5042183;28;19967;-68
2022/09/19 06:31:46;;;;;;;;;;;;;;;-144.99;100.00;52325.81;5038947;28;19933;-68
2022/09/19 06:34:15;;;;;;;;;;;;;;;-144.99;100.00;52350.25;5036474;28;19935;-69
2022/09/19 06:36:43;;;;;;;;;;;;;;;-144.99;100.00;52354.34;5041474;28;19929;-68
2022/09/19 06:39:09;;;;;;;;;;;;;;;-144.99;100.00;52366.56;5034387;28;19968;-68
2022/09/19 06:41:36;;;;;;;;;;;;;;;-144.99;100.00;52346.19;4697702;28;10000394;-69
2022/09/19 06:44:03;;;;;;;;;;;;;;;-144.99;100.00;52362.50;5047382;28;20259;-69
2022/09/19 06:46:30;;;;;;;;;;;;;;;-144.99;100.00;52344.16;5048708;28;19924;-70
2022/09/19 06:48:57;;;;;;;;;;;;;;;-144.99;100.00;52391.03;5034487;28;19933;-69
2022/09/19 06:51:25;;;;;;;;;;;;;;;-144.99;100.00;52321.72;5043036;28;20016;-69
2022/09/19 06:53:51;;;;;;;;;;;;;;;-144.99;100.00;52313.56;5035046;28;19929;-68
2022/09/19 06:56:18;;;;;;;;;;;;;;;-144.99;100.00;52352.28;5048912;28;20003;-69
2022/09/19 06:58:44;;;;;;;;;;;;;;;-144.99;100.00;52329.88;5049795;28;19931;-70
2022/09/19 07:01:11;;;;;;;;;;;;;;;-144.99;100.00;52323.75;5055071;28;19929;-69
2022/09/19 07:03:41;;;;;;;;;;;;;;;-144.99;100.00;52321.72;5053392;28;20016;-69
2022/09/19 07:06:08;;;;;;;;;;;;;;;-144.99;100.00;52346.19;5047754;28;20040;-71
2022/09/19 07:08:36;;;;;;;;;;;;;;;-144.99;100.00;52338.03;5042337;28;19935;-69
2022/09/19 07:11:03;;;;;;;;;;;;;;;-144.99;100.00;52321.72;5040465;28;19925;-69
2022/09/19 07:13:30;;;;;;;;;;;;;;;-144.99;100.00;52340.06;5028879;28;19929;-70
2022/09/19 07:15:58;;;;;;;;;;;;;;;-144.99;100.00;52301.34;5037197;28;19939;-69
2022/09/19 07:18:24;;;;;;;;;;;;;;;-144.99;100.00;52346.19;5040436;28;19925;-68
2022/09/19 07:20:50;;;;;;;;;;;;;;;-144.99;100.00;52354.34;5032442;28;20017;-70
2022/09/19 07:23:17;;;;;;;;;;;;;;;-144.99;100.00;52276.88;5028209;28;19933;-69
2022/09/19 07:25:45;;;;;;;;;;;;;;;-144.99;100.00;52346.19;5033765;28;19933;-69
2022/09/19 07:28:12;;;;;;;;;;;;;;;-144.99;100.00;52301.34;5042651;28;19925;-68
2022/09/19 07:30:39;;;;;;;;;;;;;;;-144.99;100.00;52333.94;5043405;28;19929;-69
2022/09/19 07:33:07;;;;;;;;;;;;;;;-144.99;100.00;52301.34;5046684;28;20001;-69
2022/09/19 07:35:35;;;;;;;;;;;;;;;-144.99;100.00;52297.25;5038275;28;20301;-70
2022/09/19 07:38:02;;;;;;;;;;;;;;;-144.99;99.98;52309.50;5041597;28;19928;-69
2022/09/19 07:40:28;;;;;;;;;;;;;;;-144.99;97.66;52301.34;5037573;28;20424;-69
2022/09/19 07:43:01;;;;;;;;;;;;;;;-144.99;96.07;52297.25;5029206;28;19925;-70
2022/09/19 07:45:28;;;;;;;;;;;;;;;-144.99;94.83;52297.25;5027266;28;20378;-70
2022/09/19 07:47:55;;;;;;;;;;;;;;;-144.99;91.65;52280.97;5036601;28;20244;-68
2022/09/19 07:50:21;;;;;;;;;;;;;;;-144.99;89.83;52287.06;5036998;28;19928;-69
2022/09/19 07:52:48;;;;;;;;;;;;;;;-144.99;88.77;52280.97;5044369;28;19956;-70
2022/09/19 07:55:14;;;;;;;;;;;;;;;-144.99;86.26;52276.88;5027685;28;19929;-69
2022/09/19 07:57:50;;;;;;;;;;;;;;;-144.99;82.42;52287.06;5038323;28;19943;-70
2022/09/19 08:00:18;;;;;;;;;;;;;;;-144.99;81.53;52289.13;5038172;28;20568;-68
2022/09/19 08:02:45;;;;;;;;;;;;;;;-144.99;81.46;52276.88;5045654;28;19929;-69
2022/09/19 08:05:11;;;;;;;;;;;;;;;-144.99;81.37;52227.97;5045393;28;19929;-70
2022/09/19 08:07:38;;;;;;;;;;;;;;;-144.99;81.54;52280.97;5045085;28;19924;-70
2022/09/19 08:10:06;;;;;;;;;;;;;;;-144.99;81.72;52244.28;5046965;28;20255;-69
2022/09/19 08:12:32;;;;;;;;;;;;;;;-144.99;81.05;52297.25;5045798;28;19925;-70
2022/09/19 08:14:58;;;;;;;;;;;;;;;-144.99;81.49;52285.03;5044796;28;19942;-71
2022/09/19 08:17:26;;;;;;;;;;;;;;;-144.99;81.56;52321.72;5034094;28;20071;-69
2022/09/19 08:19:54;;;;;;;;;;;;;;;-144.99;81.98;52297.25;5033565;28;20036;-69
2022/09/19 08:22:20;;;;;;;;;;;;;;;-144.99;81.37;52268.72;5026410;28;19925;-68
2022/09/19 08:24:47;;;;;;;;;;;;;;;-144.99;80.55;52248.34;5028154;28;19940;-70
2022/09/19 08:27:14;;;;;;;;;;;;;;;-144.99;78.57;52219.81;5041856;28;19931;-69
2022/09/19 08:29:40;;;;;;;;;;;;;;;-144.99;76.89;52254.47;5038595;28;20279;-69
2022/09/19 08:32:07;;;;;;;;;;;;;;;-144.99;76.49;52252.44;5033648;28;19943;-69
2022/09/19 08:34:35;;;;;;;;;;;;;;;-144.99;75.62;52280.97;5028033;28;19978;-71
2022/09/19 08:37:01;;;;;;;;;;;;;;;-144.99;76.59;52278.91;5035661;28;19928;-70
2022/09/19 08:39:28;;;;;;;;;;;;;;;-144.99;77.15;52270.78;5040431;28;19950;-69
2022/09/19 08:42:02;;;;;;;;;;;;;;;-144.99;74.95;52297.25;5031083;28;20393;-73
2022/09/19 08:44:30;;;;;;;;;;;;;;;-144.99;74.64;52268.72;5027608;28;19925;-71
2022/09/19 08:47:02;;;;;;;;;;;;;;;-144.99;74.50;52252.44;5034373;28;19944;-70
2022/09/19 08:49:31;;;;;;;;;;;;;;;-144.99;73.91;52260.56;5036791;28;19925;-70
2022/09/19 08:52:01;;;;;;;;;;;;;;;-144.99;73.73;52285.03;5038175;28;19998;-70
2022/09/19 08:54:30;;;;;;;;;;;;;;;-144.99;73.13;52260.56;5046803;28;19986;-69
2022/09/19 08:56:58;;;;;;;;;;;;;;;-144.99;70.06;52285.03;5044885;28;19940;-70
2022/09/19 08:59:26;;;;;;;;;;;;;;;-144.99;69.67;52225.94;5038195;28;20699;-69
2022/09/19 09:01:56;;;;;;;;;;;;;;;-144.99;69.25;52256.50;5046294;28;20263;-72
2022/09/19 09:04:26;;;;;;;;;;;;;;;-144.99;67.48;52219.81;5046835;28;20161;-70
2022/09/19 09:06:59;;;;;;;;;;;;;;;-144.99;63.75;52223.88;5045219;28;19929;-69
2022/09/19 09:09:32;;;;;;;;;;;;;;;-144.99;59.95;52219.81;5038600;28;19925;-69
2022/09/19 09:12:02;;;;;;;;;;;;;;;-144.99;59.63;52244.28;5032890;28;19936;-70
2022/09/19 09:14:36;;;;;;;;;;;;;;;-144.99;58.62;52244.28;5027423;28;20108;-70
2022/09/19 09:17:13;;;;;;;;;;;;;;;-144.99;57.03;52252.44;5030992;28;19938;-71
2022/09/19 09:19:52;;;;;;;;;;;;;;;-144.99;55.86;52183.13;5048028;28;19951;-70
2022/09/19 09:22:22;;;;;;;;;;;;;;;-144.99;55.26;52244.28;5048743;28;19932;-70
2022/09/19 09:24:52;;;;;;;;;;;;;;;-144.99;55.98;52203.50;5049046;28;19992;-70
2022/09/19 09:27:20;;;;;;;;;;;;;;;-144.99;55.82;52252.44;5048474;28;20020;-71
2022/09/19 09:29:50;;;;;;;;;;;;;;;-144.99;56.10;52223.88;5042550;28;20398;-70
2022/09/19 09:32:20;;;;;;;;;;;;;;;-144.99;56.04;52236.13;5047699;28;19928;-69
2022/09/19 09:34:50;;;;;;;;;;;;;;;-144.99;54.81;52227.97;5042712;28;20147;-71
2022/09/19 09:37:21;;;;;;;;;;;;;;;-144.99;55.13;52240.19;5029501;28;19955;-71
2022/09/19 09:39:59;;;;;;;;;;;;;;;-144.99;54.00;52207.59;5041791;28;19925;-69
2022/09/19 09:42:30;;;;;;;;;;;;;;;-144.99;51.81;52197.41;5055851;22;19924;-78
2022/09/19 09:45:00;;;;;;;;;;;;;;;-144.99;50.21;52183.13;5045485;28;19928;-77
2022/09/19 09:47:39;;;;;;;;;;;;;;;-144.99;49.24;52162.75;5042710;28;19929;-74
2022/09/19 09:50:13;;;;;;;;;;;;;;;-144.99;48.08;52183.13;5042931;28;20487;-77
2022/09/19 09:52:45;;;;;;;;;;;;;;;-144.99;47.21;52146.44;5043926;28;20400;-78
2022/09/19 09:58:18;;;;;;;;;;;;;;;-144.99;46.30;52207.59;5045468;28;19947;-75
2022/09/19 10:03:38;;;;;;;;;;;;;;;-144.99;46.42;52154.59;5036847;28;20011;-76
2022/09/19 10:06:09;;;;;;;;;;;;;;;-144.99;45.01;52162.75;5043610;28;19969;-77
2022/09/19 10:08:37;;;;;;;;;;;;;;;-144.99;45.30;52154.59;5053939;28;20325;-77
2022/09/19 10:11:09;;;;;;;;;;;;;;;-144.99;44.08;52179.06;5042473;28;20051;-75
2022/09/19 10:13:40;;;;;;;;;;;;;;;-144.99;43.61;52150.53;5043835;28;20375;-77
2022/09/19 10:16:07;;;;;;;;;;;;;;;-144.99;42.32;52170.91;5043395;28;19928;-74
2022/09/19 10:18:38;;;;;;;;;;;;;;;-144.99;42.79;52170.91;5043671;28;20033;-76
2022/09/19 10:21:04;;;;;;;;;;;;;;;-144.99;42.39;52191.28;5040981;28;19929;-76
2022/09/19 10:23:32;;;;;;;;;;;;;;;-144.99;43.09;52170.91;5043417;28;19929;-76
2022/09/19 10:26:00;;;;;;;;;;;;;;;-144.99;42.65;52177.00;5045172;28;19972;-78
2022/09/19 10:28:30;;;;;;;;;;;;;;;-144.99;42.58;52158.66;5045359;28;19928;-78
2022/09/19 10:30:59;;;;;;;;;;;;;;;-144.99;41.86;52103.66;5042459;28;19936;-75
2022/09/19 10:33:28;;;;;;;;;;;;;;;-144.99;40.68;52060.84;5040272;28;20327;-77
2022/09/19 10:35:58;;;;;;;;;;;;;;;-144.99;39.70;52089.38;5043938;28;20388;-75
2022/09/19 10:38:26;;;;;;;;;;;;;;;-144.99;38.42;52026.19;5044868;28;20369;-74
2022/09/19 10:40:55;;;;;;;;;;;;;;;-144.99;36.69;52016.00;5041114;28;20411;-74
2022/09/19 10:43:22;;;;;;;;;;;;;;;-144.99;36.40;52007.84;5043895;28;20022;-77
2022/09/19 10:45:49;;;;;;;;;;;;;;;-144.99;35.46;52003.78;5045131;28;19977;-76
2022/09/19 10:48:20;;;;;;;;;;;;;;;-144.99;34.89;51979.31;5043398;28;19960;-79
2022/09/19 10:50:48;;;;;;;;;;;;;;;-144.99;34.63;51987.47;5042428;28;19928;-74
2022/09/19 10:53:18;;;;;;;;;;;;;;;-144.99;34.24;52105.69;5039202;28;20340;-77
2022/09/19 10:55:45;;;;;;;;;;;;;;;-144.99;33.61;52097.53;5046331;28;19928;-78
2022/09/19 10:58:16;;;;;;;;;;;;;;;-144.99;33.87;52048.63;5045233;28;19928;-78
2022/09/19 11:00:49;;;;;;;;;;;;;;;-144.99;33.73;51954.88;5046249;28;19968;-75
2022/09/19 11:03:23;;;;;;;;;;;;;;;-144.99;33.73;51965.06;5044589;28;20444;-78
2022/09/19 11:06:02;;;;;;;;;;;;;;;-144.99;33.12;51971.16;5054968;28;19960;-79
2022/09/19 11:08:30;;;;;;;;;;;;;;;-144.99;32.48;51969.13;5062475;28;19928;-79
2022/09/19 11:10:59;;;;;;;;;;;;;;;-144.99;32.49;51969.13;5054278;28;20381;-77
2022/09/19 11:13:26;;;;;;;;;;;;;;;-144.99;32.98;51958.94;5045686;28;19988;-79
2022/09/19 11:16:02;;;;;;;;;;;;;;;-144.99;33.29;51983.41;5050495;28;19932;-77
2022/09/19 11:18:36;;;;;;;;;;;;;;;-144.99;33.82;51965.06;5047812;28;19940;-78
2022/09/19 11:21:08;;;;;;;;;;;;;;;-144.99;34.55;52048.63;5044170;28;19939;-76
2022/09/19 11:23:52;;;;;;;;;;;;;;;-144.99;35.22;52097.53;5046845;28;19948;-78
2022/09/19 11:26:26;;;;;;;;;;;;;;;-144.99;35.42;52036.38;5045908;28;19929;-78
2022/09/19 11:28:59;;;;;;;;;;;;;;;-144.99;35.70;52142.38;5046789;28;19932;-81
2022/09/19 11:31:34;;;;;;;;;;;;;;;-144.99;36.28;52121.97;5043704;28;19932;-76
2022/09/19 11:34:04;;;;;;;;;;;;;;;-144.99;35.69;52113.84;5042333;28;20453;-77
2022/09/19 11:36:38;;;;;;;;;;;;;;;-144.99;34.59;52087.34;5046693;28;19964;-79
2022/09/19 11:39:06;;;;;;;;;;;;;;;-144.99;34.12;52052.69;5047199;28;19936;-79
2022/09/19 11:41:37;;;;;;;;;;;;;;;-144.99;33.42;52024.16;5040199;28;20503;-79
2022/09/19 11:44:17;;;;;;;;;;;;;;;-144.99;32.98;51991.56;5046182;28;19947;-75
2022/09/19 11:46:49;;;;;;;;;;;;;;;-144.99;32.91;52044.53;5047270;28;20060;-76
2022/09/19 11:49:40;;;;;;;;;;;;;;;-144.99;32.79;52073.06;5047237;28;20236;-75
2022/09/19 11:52:11;;;;;;;;;;;;;;;-144.99;33.59;52107.72;5045081;28;19929;-77
2022/09/19 11:54:51;;;;;;;;;;;;;;;-144.99;34.15;52150.53;5039879;28;20051;-76
2022/09/19 11:57:25;;;;;;;;;;;;;;;-144.99;34.81;52191.28;5044437;28;19928;-78
2022/09/19 12:00:12;;;;;;;;;;;;;;;-144.99;35.86;52201.47;5046974;28;20452;-77
2022/09/19 12:02:47;;;;;;;;;;;;;;;-144.99;37.12;52268.72;5042282;28;20392;-79
2022/09/19 12:05:21;;;;;;;;;;;;;;;-144.99;38.36;52293.19;5045385;28;20002;-77
2022/09/19 12:07:53;;;;;;;;;;;;;;;-144.99;38.96;52325.81;5039494;28;19966;-79
2022/09/19 12:10:22;;;;;;;;;;;;;;;-144.99;40.00;52317.66;5057326;28;20015;-79
2022/09/19 12:12:53;;;;;;;;;;;;;;;-144.99;41.06;52305.41;5066610;28;20025;-79
2022/09/19 12:15:22;;;;;;;;;;;;;;;-144.99;41.89;52325.81;5054251;28;19939;-79
2022/09/19 12:17:52;;;;;;;;;;;;;;;-144.99;42.43;52317.66;5045599;28;19928;-79
2022/09/19 12:20:27;;;;;;;;;;;;;;;-144.99;42.57;52278.91;5046425;28;19929;-76
2022/09/19 12:22:55;;;;;;;;;;;;;;;-144.99;41.91;52289.13;5043860;28;20493;-78
2022/09/19 12:25:23;;;;;;;;;;;;;;;-144.99;40.68;52103.66;5041705;28;19939;-78
2022/09/19 12:27:51;;;;;;;;;;;;;;;-144.99;38.93;52207.59;5042949;28;19928;-76
2022/09/19 12:30:19;;;;;;;;;;;;;;;-144.99;38.17;52062.88;5042424;28;19928;-77
2022/09/19 12:32:51;;;;;;;;;;;;;;;-144.99;36.60;51999.69;5037669;28;19964;-77
2022/09/19 12:35:25;;;;;;;;;;;;;;;-144.99;35.01;52024.16;5043004;28;20012;-78
2022/09/19 12:38:01;;;;;;;;;;;;;;;-144.99;34.66;52150.53;5044607;28;20528;-79
2022/09/19 12:40:31;;;;;;;;;;;;;;;-144.99;35.34;52162.75;5037016;28;19929;-78
2022/09/19 12:43:01;;;;;;;;;;;;;;;-144.99;36.41;52197.41;5047450;28;19947;-79
2022/09/19 12:45:31;;;;;;;;;;;;;;;-144.99;36.28;52221.84;5050183;28;19964;-78